sensor_id;sensor_type;location;lat;lon;timestamp;temperature;humidity
5200;DHT22;2619;47.868;11.892;2023-04-24T00:00:16;8.90;99.90
5200;DHT22;2619;47.868;11.892;2023-04-24T00:02:44;8.90;99.90
5200;DHT22;2619;47.868;11.892;2023-04-24T00:05:14;8.90;99.90
5200;DHT22;2619;47.868;11.892;2023-04-24T00:07:41;8.90;99.90
5200;DHT22;2619;47.868;11.892;2023-04-24T00:10:08;8.90;99.90
5200;DHT22;2619;47.868;11.892;2023-04-24T00:12:34;8.90;99.90
5200;DHT22;2619;47.868;11.892;2023-04-24T00:15:00;8.90;99.90
5200;DHT22;2619;47.868;11.892;2023-04-24T00:17:26;8.80;99.90
5200;DHT22;2619;47.868;11.892;2023-04-24T00:19:51;8.90;99.90
5200;DHT22;2619;47.868;11.892;2023-04-24T00:22:26;8.90;99.90
5200;DHT22;2619;47.868;11.892;2023-04-24T00:24:52;8.90;99.90
5200;DHT22;2619;47.868;11.892;2023-04-24T00:27:18;8.90;99.90
5200;DHT22;2619;47.868;11.892;2023-04-24T00:29:43;8.80;99.90
5200;DHT22;2619;47.868;11.892;2023-04-24T00:32:09;8.80;99.90
5200;DHT22;2619;47.868;11.892;2023-04-24T00:34:34;8.80;99.90
5200;DHT22;2619;47.868;11.892;2023-04-24T00:37:00;8.70;99.90
5200;DHT22;2619;47.868;11.892;2023-04-24T00:39:26;8.70;99.90
5200;DHT22;2619;47.868;11.892;2023-04-24T00:41:52;8.70;99.90
5200;DHT22;2619;47.868;11.892;2023-04-24T00:44:18;8.70;99.90
5200;DHT22;2619;47.868;11.892;2023-04-24T00:46:44;8.70;99.90
5200;DHT22;2619;47.868;11.892;2023-04-24T00:49:12;8.70;99.90
5200;DHT22;2619;47.868;11.892;2023-04-24T00:51:37;8.70;99.90
5200;DHT22;2619;47.868;11.892;2023-04-24T00:54:03;8.70;99.90
5200;DHT22;2619;47.868;11.892;2023-04-24T00:56:29;8.70;99.90
5200;DHT22;2619;47.868;11.892;2023-04-24T00:58:55;8.70;99.90
5200;DHT22;2619;47.868;11.892;2023-04-24T01:01:21;8.70;99.90
5200;DHT22;2619;47.868;11.892;2023-04-24T01:03:49;8.70;99.90
5200;DHT22;2619;47.868;11.892;2023-04-24T01:06:15;8.70;99.90
5200;DHT22;2619;47.868;11.892;2023-04-24T01:08:41;8.80;99.90
5200;DHT22;2619;47.868;11.892;2023-04-24T01:11:07;8.80;99.90
5200;DHT22;2619;47.868;11.892;2023-04-24T01:13:33;8.80;99.90
5200;DHT22;2619;47.868;11.892;2023-04-24T01:15:59;8.80;99.90
5200;DHT22;2619;47.868;11.892;2023-04-24T01:18:26;8.70;99.90
5200;DHT22;2619;47.868;11.892;2023-04-24T01:20:54;8.80;99.90
5200;DHT22;2619;47.868;11.892;2023-04-24T01:23:22;8.80;99.90
5200;DHT22;2619;47.868;11.892;2023-04-24T01:25:49;8.80;99.90
5200;DHT22;2619;47.868;11.892;2023-04-24T01:28:15;8.70;99.90
5200;DHT22;2619;47.868;11.892;2023-04-24T01:30:41;8.80;99.90
5200;DHT22;2619;47.868;11.892;2023-04-24T01:33:07;8.70;99.90
5200;DHT22;2619;47.868;11.892;2023-04-24T01:35:33;8.70;99.90
5200;DHT22;2619;47.868;11.892;2023-04-24T01:37:58;8.70;99.90
5200;DHT22;2619;47.868;11.892;2023-04-24T01:40:24;8.70;99.90
5200;DHT22;2619;47.868;11.892;2023-04-24T01:42:50;8.80;99.90
5200;DHT22;2619;47.868;11.892;2023-04-24T01:45:16;8.70;99.90
5200;DHT22;2619;47.868;11.892;2023-04-24T01:47:42;8.70;99.90
5200;DHT22;2619;47.868;11.892;2023-04-24T01:50:08;8.70;99.90
5200;DHT22;2619;47.868;11.892;2023-04-24T01:52:33;8.60;99.90
5200;DHT22;2619;47.868;11.892;2023-04-24T01:55:01;8.70;99.90
5200;DHT22;2619;47.868;11.892;2023-04-24T01:57:28;8.70;99.90
5200;DHT22;2619;47.868;11.892;2023-04-24T01:59:55;8.70;99.90
5200;DHT22;2619;47.868;11.892;2023-04-24T02:02:21;8.70;99.90
5200;DHT22;2619;47.868;11.892;2023-04-24T02:04:49;8.70;99.90
5200;DHT22;2619;47.868;11.892;2023-04-24T02:07:15;8.70;99.90
5200;DHT22;2619;47.868;11.892;2023-04-24T02:09:40;8.70;99.90
5200;DHT22;2619;47.868;11.892;2023-04-24T02:12:06;8.70;99.90
5200;DHT22;2619;47.868;11.892;2023-04-24T02:14:32;8.70;99.90
5200;DHT22;2619;47.868;11.892;2023-04-24T02:16:57;8.70;99.90
5200;DHT22;2619;47.868;11.892;2023-04-24T02:19:23;8.60;99.90
5200;DHT22;2619;47.868;11.892;2023-04-24T02:21:48;8.70;99.90
5200;DHT22;2619;47.868;11.892;2023-04-24T02:24:14;8.70;99.90
5200;DHT22;2619;47.868;11.892;2023-04-24T02:26:39;8.70;99.90
5200;DHT22;2619;47.868;11.892;2023-04-24T02:29:05;8.80;99.90
5200;DHT22;2619;47.868;11.892;2023-04-24T02:31:31;8.70;99.90
5200;DHT22;2619;47.868;11.892;2023-04-24T02:33:56;8.70;99.90
5200;DHT22;2619;47.868;11.892;2023-04-24T02:36:22;8.70;99.90
5200;DHT22;2619;47.868;11.892;2023-04-24T02:38:47;8.60;99.90
5200;DHT22;2619;47.868;11.892;2023-04-24T02:41:13;8.60;99.90
5200;DHT22;2619;47.868;11.892;2023-04-24T02:43:38;8.60;99.90
5200;DHT22;2619;47.868;11.892;2023-04-24T02:46:04;8.60;99.90
5200;DHT22;2619;47.868;11.892;2023-04-24T02:48:29;8.60;99.90
5200;DHT22;2619;47.868;11.892;2023-04-24T02:50:55;8.50;99.90
5200;DHT22;2619;47.868;11.892;2023-04-24T02:53:21;8.60;99.90
5200;DHT22;2619;47.868;11.892;2023-04-24T02:55:46;8.50;99.90
5200;DHT22;2619;47.868;11.892;2023-04-24T02:58:12;8.50;99.90
5200;DHT22;2619;47.868;11.892;2023-04-24T03:00:38;8.40;99.90
5200;DHT22;2619;47.868;11.892;2023-04-24T03:03:05;8.50;99.90
5200;DHT22;2619;47.868;11.892;2023-04-24T03:05:30;8.50;99.90
5200;DHT22;2619;47.868;11.892;2023-04-24T03:07:56;8.50;99.90
5200;DHT22;2619;47.868;11.892;2023-04-24T03:10:22;8.50;99.90
5200;DHT22;2619;47.868;11.892;2023-04-24T03:12:48;8.50;99.90
5200;DHT22;2619;47.868;11.892;2023-04-24T03:15:14;8.50;99.90
5200;DHT22;2619;47.868;11.892;2023-04-24T03:17:39;8.40;99.90
5200;DHT22;2619;47.868;11.892;2023-04-24T03:20:05;8.40;99.90
5200;DHT22;2619;47.868;11.892;2023-04-24T03:22:31;8.40;99.90
5200;DHT22;2619;47.868;11.892;2023-04-24T03:24:58;8.40;99.90
5200;DHT22;2619;47.868;11.892;2023-04-24T03:27:23;8.40;99.90
5200;DHT22;2619;47.868;11.892;2023-04-24T03:29:49;8.40;99.90
5200;DHT22;2619;47.868;11.892;2023-04-24T03:32:19;8.40;99.90
5200;DHT22;2619;47.868;11.892;2023-04-24T03:34:44;8.30;99.90
5200;DHT22;2619;47.868;11.892;2023-04-24T03:37:10;8.40;99.90
5200;DHT22;2619;47.868;11.892;2023-04-24T03:39:35;8.40;99.90
5200;DHT22;2619;47.868;11.892;2023-04-24T03:42:01;8.30;99.90
5200;DHT22;2619;47.868;11.892;2023-04-24T03:44:27;8.30;99.90
5200;DHT22;2619;47.868;11.892;2023-04-24T03:46:52;8.30;99.90
5200;DHT22;2619;47.868;11.892;2023-04-24T03:49:18;8.30;99.90
5200;DHT22;2619;47.868;11.892;2023-04-24T03:51:44;8.30;99.90
5200;DHT22;2619;47.868;11.892;2023-04-24T03:54:09;8.30;99.90
5200;DHT22;2619;47.868;11.892;2023-04-24T03:56:35;8.30;99.90
5200;DHT22;2619;47.868;11.892;2023-04-24T03:59:00;8.30;99.90
5200;DHT22;2619;47.868;11.892;2023-04-24T04:01:26;8.30;99.90
5200;DHT22;2619;47.868;11.892;2023-04-24T04:03:53;8.30;99.90
5200;DHT22;2619;47.868;11.892;2023-04-24T04:06:19;8.20;99.90
5200;DHT22;2619;47.868;11.892;2023-04-24T04:08:46;8.20;99.90
5200;DHT22;2619;47.868;11.892;2023-04-24T04:11:12;8.20;99.90
5200;DHT22;2619;47.868;11.892;2023-04-24T04:13:37;8.20;99.90
5200;DHT22;2619;47.868;11.892;2023-04-24T04:16:03;8.20;99.90
5200;DHT22;2619;47.868;11.892;2023-04-24T04:18:29;8.20;99.90
5200;DHT22;2619;47.868;11.892;2023-04-24T04:20:54;8.30;99.90
5200;DHT22;2619;47.868;11.892;2023-04-24T04:23:20;8.30;99.90
5200;DHT22;2619;47.868;11.892;2023-04-24T04:25:45;8.20;99.90
5200;DHT22;2619;47.868;11.892;2023-04-24T04:28:12;8.30;99.90
5200;DHT22;2619;47.868;11.892;2023-04-24T04:30:37;8.20;99.90
5200;DHT22;2619;47.868;11.892;2023-04-24T04:33:03;8.30;99.90
5200;DHT22;2619;47.868;11.892;2023-04-24T04:35:29;8.30;99.90
5200;DHT22;2619;47.868;11.892;2023-04-24T04:37:54;8.30;99.90
5200;DHT22;2619;47.868;11.892;2023-04-24T04:40:24;8.30;99.90
5200;DHT22;2619;47.868;11.892;2023-04-24T04:42:50;8.40;99.90
5200;DHT22;2619;47.868;11.892;2023-04-24T04:45:18;8.40;99.90
5200;DHT22;2619;47.868;11.892;2023-04-24T04:47:44;8.40;99.90
5200;DHT22;2619;47.868;11.892;2023-04-24T04:50:09;8.40;99.90
5200;DHT22;2619;47.868;11.892;2023-04-24T04:52:35;8.40;99.90
5200;DHT22;2619;47.868;11.892;2023-04-24T04:55:01;8.40;99.90
5200;DHT22;2619;47.868;11.892;2023-04-24T04:57:27;8.40;99.90
5200;DHT22;2619;47.868;11.892;2023-04-24T04:59:53;8.40;99.90
5200;DHT22;2619;47.868;11.892;2023-04-24T05:02:18;8.40;99.90
5200;DHT22;2619;47.868;11.892;2023-04-24T05:04:44;8.40;99.90
5200;DHT22;2619;47.868;11.892;2023-04-24T05:07:10;8.40;99.90
5200;DHT22;2619;47.868;11.892;2023-04-24T05:09:36;8.40;99.90
5200;DHT22;2619;47.868;11.892;2023-04-24T05:12:02;8.30;99.90
5200;DHT22;2619;47.868;11.892;2023-04-24T05:14:27;8.40;99.90
5200;DHT22;2619;47.868;11.892;2023-04-24T05:16:53;8.40;99.90
5200;DHT22;2619;47.868;11.892;2023-04-24T05:19:18;8.40;99.90
5200;DHT22;2619;47.868;11.892;2023-04-24T05:21:44;8.50;99.90
5200;DHT22;2619;47.868;11.892;2023-04-24T05:24:10;8.50;99.90
5200;DHT22;2619;47.868;11.892;2023-04-24T05:26:36;8.40;99.90
5200;DHT22;2619;47.868;11.892;2023-04-24T05:29:02;8.50;99.90
5200;DHT22;2619;47.868;11.892;2023-04-24T05:31:27;8.50;99.90
5200;DHT22;2619;47.868;11.892;2023-04-24T05:33:53;8.50;99.90
5200;DHT22;2619;47.868;11.892;2023-04-24T05:36:19;8.40;99.90
5200;DHT22;2619;47.868;11.892;2023-04-24T05:38:44;8.50;99.90
5200;DHT22;2619;47.868;11.892;2023-04-24T05:41:10;8.60;99.90
5200;DHT22;2619;47.868;11.892;2023-04-24T05:43:36;8.70;99.90
5200;DHT22;2619;47.868;11.892;2023-04-24T05:46:01;8.80;99.90
5200;DHT22;2619;47.868;11.892;2023-04-24T05:48:27;8.80;99.90
5200;DHT22;2619;47.868;11.892;2023-04-24T05:50:52;8.80;99.90
5200;DHT22;2619;47.868;11.892;2023-04-24T05:53:18;8.90;99.90
5200;DHT22;2619;47.868;11.892;2023-04-24T05:55:44;9.00;99.90
5200;DHT22;2619;47.868;11.892;2023-04-24T05:58:11;9.00;99.90
5200;DHT22;2619;47.868;11.892;2023-04-24T06:00:37;9.10;99.90
5200;DHT22;2619;47.868;11.892;2023-04-24T06:03:05;9.30;99.90
5200;DHT22;2619;47.868;11.892;2023-04-24T06:05:30;9.40;99.90
5200;DHT22;2619;47.868;11.892;2023-04-24T06:07:56;9.60;99.90
5200;DHT22;2619;47.868;11.892;2023-04-24T06:10:22;9.60;99.90
5200;DHT22;2619;47.868;11.892;2023-04-24T06:12:47;9.80;99.90
5200;DHT22;2619;47.868;11.892;2023-04-24T06:15:13;10.20;99.90
5200;DHT22;2619;47.868;11.892;2023-04-24T06:17:39;10.20;99.90
5200;DHT22;2619;47.868;11.892;2023-04-24T06:20:05;10.20;99.90
5200;DHT22;2619;47.868;11.892;2023-04-24T06:22:32;10.40;99.90
5200;DHT22;2619;47.868;11.892;2023-04-24T06:24:57;10.50;99.90
5200;DHT22;2619;47.868;11.892;2023-04-24T06:27:23;10.50;99.90
5200;DHT22;2619;47.868;11.892;2023-04-24T06:29:48;10.40;99.90
5200;DHT22;2619;47.868;11.892;2023-04-24T06:32:21;10.40;99.90
5200;DHT22;2619;47.868;11.892;2023-04-24T06:34:47;10.50;99.90
5200;DHT22;2619;47.868;11.892;2023-04-24T06:37:13;10.50;99.90
5200;DHT22;2619;47.868;11.892;2023-04-24T06:39:39;10.60;99.90
5200;DHT22;2619;47.868;11.892;2023-04-24T06:42:05;10.60;99.90
5200;DHT22;2619;47.868;11.892;2023-04-24T06:44:30;10.70;99.90
5200;DHT22;2619;47.868;11.892;2023-04-24T06:46:56;11.00;99.90
5200;DHT22;2619;47.868;11.892;2023-04-24T06:49:21;11.20;99.90
5200;DHT22;2619;47.868;11.892;2023-04-24T06:51:47;11.30;99.90
5200;DHT22;2619;47.868;11.892;2023-04-24T06:54:13;11.50;99.90
5200;DHT22;2619;47.868;11.892;2023-04-24T06:56:38;11.50;99.90
5200;DHT22;2619;47.868;11.892;2023-04-24T06:59:04;11.60;99.90
5200;DHT22;2619;47.868;11.892;2023-04-24T07:01:30;11.80;99.90
5200;DHT22;2619;47.868;11.892;2023-04-24T07:03:55;11.80;99.90
5200;DHT22;2619;47.868;11.892;2023-04-24T07:06:21;11.60;99.90
5200;DHT22;2619;47.868;11.892;2023-04-24T07:08:48;11.70;99.90
5200;DHT22;2619;47.868;11.892;2023-04-24T07:11:14;11.60;99.90
5200;DHT22;2619;47.868;11.892;2023-04-24T07:13:40;11.80;99.90
5200;DHT22;2619;47.868;11.892;2023-04-24T07:16:07;11.80;99.90
5200;DHT22;2619;47.868;11.892;2023-04-24T07:18:33;11.80;99.90
5200;DHT22;2619;47.868;11.892;2023-04-24T07:20:59;11.90;99.90
5200;DHT22;2619;47.868;11.892;2023-04-24T07:23:25;12.10;99.90
5200;DHT22;2619;47.868;11.892;2023-04-24T07:25:50;12.20;99.90
5200;DHT22;2619;47.868;11.892;2023-04-24T07:28:16;12.60;99.90
5200;DHT22;2619;47.868;11.892;2023-04-24T07:30:43;13.00;99.90
5200;DHT22;2619;47.868;11.892;2023-04-24T07:33:08;13.10;99.90
5200;DHT22;2619;47.868;11.892;2023-04-24T07:35:36;13.00;99.90
5200;DHT22;2619;47.868;11.892;2023-04-24T07:38:02;13.10;99.90
5200;DHT22;2619;47.868;11.892;2023-04-24T07:40:27;13.10;99.90
5200;DHT22;2619;47.868;11.892;2023-04-24T07:42:53;13.00;99.90
5200;DHT22;2619;47.868;11.892;2023-04-24T07:45:18;13.20;99.90
5200;DHT22;2619;47.868;11.892;2023-04-24T07:47:44;13.40;99.90
5200;DHT22;2619;47.868;11.892;2023-04-24T07:50:11;13.40;99.90
5200;DHT22;2619;47.868;11.892;2023-04-24T07:52:38;13.30;99.90
5200;DHT22;2619;47.868;11.892;2023-04-24T07:55:04;13.40;99.90
5200;DHT22;2619;47.868;11.892;2023-04-24T07:57:30;13.40;99.90
5200;DHT22;2619;47.868;11.892;2023-04-24T07:59:55;13.50;99.90
5200;DHT22;2619;47.868;11.892;2023-04-24T08:02:21;13.60;99.90
5200;DHT22;2619;47.868;11.892;2023-04-24T08:04:52;13.80;99.90
5200;DHT22;2619;47.868;11.892;2023-04-24T08:07:19;14.10;99.90
5200;DHT22;2619;47.868;11.892;2023-04-24T08:09:45;14.20;99.90
5200;DHT22;2619;47.868;11.892;2023-04-24T08:12:10;14.00;99.90
5200;DHT22;2619;47.868;11.892;2023-04-24T08:14:36;14.00;99.90
5200;DHT22;2619;47.868;11.892;2023-04-24T08:17:01;13.80;99.90
5200;DHT22;2619;47.868;11.892;2023-04-24T08:19:28;13.40;99.90
5200;DHT22;2619;47.868;11.892;2023-04-24T08:21:54;12.90;99.90
5200;DHT22;2619;47.868;11.892;2023-04-24T08:24:19;12.90;99.90
5200;DHT22;2619;47.868;11.892;2023-04-24T08:26:45;12.60;99.90
5200;DHT22;2619;47.868;11.892;2023-04-24T08:29:11;12.30;99.90
5200;DHT22;2619;47.868;11.892;2023-04-24T08:31:36;12.00;99.90
5200;DHT22;2619;47.868;11.892;2023-04-24T08:34:02;11.80;99.90
5200;DHT22;2619;47.868;11.892;2023-04-24T08:36:28;11.60;99.90
5200;DHT22;2619;47.868;11.892;2023-04-24T08:38:53;11.60;99.90
5200;DHT22;2619;47.868;11.892;2023-04-24T08:41:19;11.50;99.90
5200;DHT22;2619;47.868;11.892;2023-04-24T08:43:48;11.60;99.90
5200;DHT22;2619;47.868;11.892;2023-04-24T08:46:15;11.70;99.90
5200;DHT22;2619;47.868;11.892;2023-04-24T08:48:42;12.00;99.90
5200;DHT22;2619;47.868;11.892;2023-04-24T08:51:08;12.10;99.90
5200;DHT22;2619;47.868;11.892;2023-04-24T08:53:35;11.90;99.90
5200;DHT22;2619;47.868;11.892;2023-04-24T08:56:01;12.00;99.90
5200;DHT22;2619;47.868;11.892;2023-04-24T08:58:28;11.90;99.90
5200;DHT22;2619;47.868;11.892;2023-04-24T09:00:54;11.80;99.90
5200;DHT22;2619;47.868;11.892;2023-04-24T09:03:20;11.60;99.90
5200;DHT22;2619;47.868;11.892;2023-04-24T09:05:47;11.40;99.90
5200;DHT22;2619;47.868;11.892;2023-04-24T09:08:16;11.40;99.90
5200;DHT22;2619;47.868;11.892;2023-04-24T09:10:43;11.60;99.90
5200;DHT22;2619;47.868;11.892;2023-04-24T09:13:09;11.90;99.90
5200;DHT22;2619;47.868;11.892;2023-04-24T09:15:39;12.10;99.90
5200;DHT22;2619;47.868;11.892;2023-04-24T09:18:05;12.60;99.90
5200;DHT22;2619;47.868;11.892;2023-04-24T09:20:31;13.00;99.90
5200;DHT22;2619;47.868;11.892;2023-04-24T09:22:58;13.00;99.90
5200;DHT22;2619;47.868;11.892;2023-04-24T09:25:34;12.60;99.90
5200;DHT22;2619;47.868;11.892;2023-04-24T09:28:02;12.40;99.90
5200;DHT22;2619;47.868;11.892;2023-04-24T09:30:28;12.10;99.90
5200;DHT22;2619;47.868;11.892;2023-04-24T09:33:10;11.80;99.90
5200;DHT22;2619;47.868;11.892;2023-04-24T09:35:36;11.40;99.90
5200;DHT22;2619;47.868;11.892;2023-04-24T09:38:02;11.40;99.90
5200;DHT22;2619;47.868;11.892;2023-04-24T09:40:27;11.30;99.90
5200;DHT22;2619;47.868;11.892;2023-04-24T09:42:55;11.30;99.90
5200;DHT22;2619;47.868;11.892;2023-04-24T09:45:22;11.20;99.90
5200;DHT22;2619;47.868;11.892;2023-04-24T09:47:52;11.30;99.90
5200;DHT22;2619;47.868;11.892;2023-04-24T09:50:21;11.40;99.90
5200;DHT22;2619;47.868;11.892;2023-04-24T09:52:58;11.60;99.90
5200;DHT22;2619;47.868;11.892;2023-04-24T09:55:24;12.00;99.90
5200;DHT22;2619;47.868;11.892;2023-04-24T09:58:00;12.20;99.90
5200;DHT22;2619;47.868;11.892;2023-04-24T10:00:31;12.60;99.90
5200;DHT22;2619;47.868;11.892;2023-04-24T10:03:02;12.80;99.90
5200;DHT22;2619;47.868;11.892;2023-04-24T10:05:33;13.00;99.90
5200;DHT22;2619;47.868;11.892;2023-04-24T10:08:06;12.90;99.90
5200;DHT22;2619;47.868;11.892;2023-04-24T10:10:34;12.30;99.90
5200;DHT22;2619;47.868;11.892;2023-04-24T10:13:00;12.10;99.90
5200;DHT22;2619;47.868;11.892;2023-04-24T10:15:27;11.90;99.90
5200;DHT22;2619;47.868;11.892;2023-04-24T10:17:53;12.00;99.90
5200;DHT22;2619;47.868;11.892;2023-04-24T10:20:23;12.50;99.90
5200;DHT22;2619;47.868;11.892;2023-04-24T10:22:51;12.90;99.90
5200;DHT22;2619;47.868;11.892;2023-04-24T10:25:22;13.30;99.90
5200;DHT22;2619;47.868;11.892;2023-04-24T10:27:50;13.40;99.90
5200;DHT22;2619;47.868;11.892;2023-04-24T10:30:16;13.80;99.90
5200;DHT22;2619;47.868;11.892;2023-04-24T10:32:42;13.70;99.90
5200;DHT22;2619;47.868;11.892;2023-04-24T10:35:13;13.70;99.90
5200;DHT22;2619;47.868;11.892;2023-04-24T10:37:48;13.80;99.90
5200;DHT22;2619;47.868;11.892;2023-04-24T10:40:18;13.60;99.90
5200;DHT22;2619;47.868;11.892;2023-04-24T10:42:48;13.40;99.90
5200;DHT22;2619;47.868;11.892;2023-04-24T10:45:21;13.10;99.90
5200;DHT22;2619;47.868;11.892;2023-04-24T10:47:59;13.00;99.90
5200;DHT22;2619;47.868;11.892;2023-04-24T10:50:27;12.90;99.90
5200;DHT22;2619;47.868;11.892;2023-04-24T10:52:55;13.20;99.90
5200;DHT22;2619;47.868;11.892;2023-04-24T10:55:43;13.60;99.90
5200;DHT22;2619;47.868;11.892;2023-04-24T10:58:09;13.90;99.90
5200;DHT22;2619;47.868;11.892;2023-04-24T11:00:40;14.00;99.90
5200;DHT22;2619;47.868;11.892;2023-04-24T11:03:12;14.10;99.90
5200;DHT22;2619;47.868;11.892;2023-04-24T11:06:01;14.00;99.90
5200;DHT22;2619;47.868;11.892;2023-04-24T11:08:40;14.30;99.90
5200;DHT22;2619;47.868;11.892;2023-04-24T11:11:18;14.60;99.90
5200;DHT22;2619;47.868;11.892;2023-04-24T11:21:44;14.20;99.90
5200;DHT22;2619;47.868;11.892;2023-04-24T11:26:56;14.20;99.90
5200;DHT22;2619;47.868;11.892;2023-04-24T11:29:22;14.30;99.90
5200;DHT22;2619;47.868;11.892;2023-04-24T11:31:48;14.10;99.90
5200;DHT22;2619;47.868;11.892;2023-04-24T11:34:17;14.20;99.90
5200;DHT22;2619;47.868;11.892;2023-04-24T11:36:44;14.10;99.90
5200;DHT22;2619;47.868;11.892;2023-04-24T11:39:10;14.20;99.90
5200;DHT22;2619;47.868;11.892;2023-04-24T11:41:37;14.70;99.90
5200;DHT22;2619;47.868;11.892;2023-04-24T11:44:04;14.60;99.90
5200;DHT22;2619;47.868;11.892;2023-04-24T11:46:31;14.00;99.90
5200;DHT22;2619;47.868;11.892;2023-04-24T11:48:57;13.60;99.90
5200;DHT22;2619;47.868;11.892;2023-04-24T11:51:24;12.40;99.90
5200;DHT22;2619;47.868;11.892;2023-04-24T11:53:51;10.90;99.90
5200;DHT22;2619;47.868;11.892;2023-04-24T11:56:21;9.60;99.90
5200;DHT22;2619;47.868;11.892;2023-04-24T11:58:47;8.90;99.90
5200;DHT22;2619;47.868;11.892;2023-04-24T12:01:13;8.80;99.90
5200;DHT22;2619;47.868;11.892;2023-04-24T12:03:39;9.10;99.90
5200;DHT22;2619;47.868;11.892;2023-04-24T12:06:10;9.40;99.90
5200;DHT22;2619;47.868;11.892;2023-04-24T12:08:36;9.70;99.90
5200;DHT22;2619;47.868;11.892;2023-04-24T12:11:03;9.90;99.90
5200;DHT22;2619;47.868;11.892;2023-04-24T12:13:29;10.20;99.90
5200;DHT22;2619;47.868;11.892;2023-04-24T12:15:57;10.50;99.90
5200;DHT22;2619;47.868;11.892;2023-04-24T12:18:23;11.10;99.90
5200;DHT22;2619;47.868;11.892;2023-04-24T12:20:49;11.90;99.90
5200;DHT22;2619;47.868;11.892;2023-04-24T12:23:15;12.50;99.90
5200;DHT22;2619;47.868;11.892;2023-04-24T12:25:40;12.90;99.90
5200;DHT22;2619;47.868;11.892;2023-04-24T12:30:43;13.60;99.90
5200;DHT22;2619;47.868;11.892;2023-04-24T12:33:20;13.80;99.90
5200;DHT22;2619;47.868;11.892;2023-04-24T12:35:51;13.80;99.90
5200;DHT22;2619;47.868;11.892;2023-04-24T12:38:22;14.10;99.90
5200;DHT22;2619;47.868;11.892;2023-04-24T12:41:00;13.80;99.90
5200;DHT22;2619;47.868;11.892;2023-04-24T12:43:26;14.10;99.90
5200;DHT22;2619;47.868;11.892;2023-04-24T12:45:51;14.30;99.90
5200;DHT22;2619;47.868;11.892;2023-04-24T12:48:17;14.80;99.90
5200;DHT22;2619;47.868;11.892;2023-04-24T12:50:43;14.90;99.90
5200;DHT22;2619;47.868;11.892;2023-04-24T12:53:09;15.30;99.90
5200;DHT22;2619;47.868;11.892;2023-04-24T12:55:36;15.20;99.90
5200;DHT22;2619;47.868;11.892;2023-04-24T12:58:02;15.40;99.90
5200;DHT22;2619;47.868;11.892;2023-04-24T13:00:28;15.30;99.90
5200;DHT22;2619;47.868;11.892;2023-04-24T13:02:54;14.60;99.90
5200;DHT22;2619;47.868;11.892;2023-04-24T13:05:20;14.20;99.90
5200;DHT22;2619;47.868;11.892;2023-04-24T13:07:45;13.90;99.90
5200;DHT22;2619;47.868;11.892;2023-04-24T13:10:11;14.10;99.90
5200;DHT22;2619;47.868;11.892;2023-04-24T13:12:38;14.10;99.90
5200;DHT22;2619;47.868;11.892;2023-04-24T13:15:05;14.20;99.90
5200;DHT22;2619;47.868;11.892;2023-04-24T13:17:30;14.40;99.90
5200;DHT22;2619;47.868;11.892;2023-04-24T13:19:56;13.90;99.90
5200;DHT22;2619;47.868;11.892;2023-04-24T13:22:22;13.70;99.90
5200;DHT22;2619;47.868;11.892;2023-04-24T13:24:47;13.50;99.90
5200;DHT22;2619;47.868;11.892;2023-04-24T13:27:14;12.80;99.90
5200;DHT22;2619;47.868;11.892;2023-04-24T13:29:40;10.80;99.90
5200;DHT22;2619;47.868;11.892;2023-04-24T13:32:06;9.90;99.90
5200;DHT22;2619;47.868;11.892;2023-04-24T13:34:31;9.70;99.90
5200;DHT22;2619;47.868;11.892;2023-04-24T13:36:58;9.70;99.90
5200;DHT22;2619;47.868;11.892;2023-04-24T13:39:24;10.20;99.90
5200;DHT22;2619;47.868;11.892;2023-04-24T13:41:50;10.50;99.90
5200;DHT22;2619;47.868;11.892;2023-04-24T13:44:17;10.80;99.90
5200;DHT22;2619;47.868;11.892;2023-04-24T13:46:45;11.10;99.90
5200;DHT22;2619;47.868;11.892;2023-04-24T13:49:12;11.40;99.90
5200;DHT22;2619;47.868;11.892;2023-04-24T13:51:39;11.30;99.90
5200;DHT22;2619;47.868;11.892;2023-04-24T13:54:05;10.50;99.90
5200;DHT22;2619;47.868;11.892;2023-04-24T13:56:31;10.20;99.90
5200;DHT22;2619;47.868;11.892;2023-04-24T13:58:56;10.20;99.90
5200;DHT22;2619;47.868;11.892;2023-04-24T14:01:22;10.50;99.90
5200;DHT22;2619;47.868;11.892;2023-04-24T14:03:51;10.70;99.90
5200;DHT22;2619;47.868;11.892;2023-04-24T14:06:21;10.90;99.90
5200;DHT22;2619;47.868;11.892;2023-04-24T14:08:47;11.10;99.90
5200;DHT22;2619;47.868;11.892;2023-04-24T14:11:13;11.40;99.90
5200;DHT22;2619;47.868;11.892;2023-04-24T14:13:41;11.70;99.90
5200;DHT22;2619;47.868;11.892;2023-04-24T14:16:06;12.10;99.90
5200;DHT22;2619;47.868;11.892;2023-04-24T14:18:32;12.30;99.90
5200;DHT22;2619;47.868;11.892;2023-04-24T14:20:58;12.60;99.90
5200;DHT22;2619;47.868;11.892;2023-04-24T14:23:24;12.70;99.90
5200;DHT22;2619;47.868;11.892;2023-04-24T14:25:50;13.00;99.90
5200;DHT22;2619;47.868;11.892;2023-04-24T14:28:18;13.20;99.90
5200;DHT22;2619;47.868;11.892;2023-04-24T14:30:44;13.40;99.90
5200;DHT22;2619;47.868;11.892;2023-04-24T14:33:10;13.40;99.90
5200;DHT22;2619;47.868;11.892;2023-04-24T14:35:36;13.40;99.90
5200;DHT22;2619;47.868;11.892;2023-04-24T14:38:01;13.30;99.90
5200;DHT22;2619;47.868;11.892;2023-04-24T14:40:27;12.70;99.90
5200;DHT22;2619;47.868;11.892;2023-04-24T14:42:53;12.50;99.90
5200;DHT22;2619;47.868;11.892;2023-04-24T14:45:19;12.20;99.90
5200;DHT22;2619;47.868;11.892;2023-04-24T14:47:45;11.80;99.90
5200;DHT22;2619;47.868;11.892;2023-04-24T14:50:10;11.70;99.90
5200;DHT22;2619;47.868;11.892;2023-04-24T14:52:38;11.80;99.90
5200;DHT22;2619;47.868;11.892;2023-04-24T14:55:04;11.90;99.90
5200;DHT22;2619;47.868;11.892;2023-04-24T14:57:30;12.00;99.90
5200;DHT22;2619;47.868;11.892;2023-04-24T14:59:55;11.80;99.90
5200;DHT22;2619;47.868;11.892;2023-04-24T15:02:21;11.60;99.90
5200;DHT22;2619;47.868;11.892;2023-04-24T15:04:46;11.90;99.90
5200;DHT22;2619;47.868;11.892;2023-04-24T15:07:12;12.20;99.90
5200;DHT22;2619;47.868;11.892;2023-04-24T15:09:38;12.80;99.90
5200;DHT22;2619;47.868;11.892;2023-04-24T15:12:03;13.10;99.90
5200;DHT22;2619;47.868;11.892;2023-04-24T15:14:29;13.20;99.90
5200;DHT22;2619;47.868;11.892;2023-04-24T15:16:55;13.10;99.90
5200;DHT22;2619;47.868;11.892;2023-04-24T15:19:21;13.30;99.90
5200;DHT22;2619;47.868;11.892;2023-04-24T15:21:46;13.30;99.90
5200;DHT22;2619;47.868;11.892;2023-04-24T15:24:12;13.20;99.90
5200;DHT22;2619;47.868;11.892;2023-04-24T15:26:37;13.30;99.90
5200;DHT22;2619;47.868;11.892;2023-04-24T15:29:03;13.40;99.90
5200;DHT22;2619;47.868;11.892;2023-04-24T15:31:29;13.40;99.90
5200;DHT22;2619;47.868;11.892;2023-04-24T15:33:55;13.40;99.90
5200;DHT22;2619;47.868;11.892;2023-04-24T15:36:21;13.50;99.90
5200;DHT22;2619;47.868;11.892;2023-04-24T15:38:47;13.60;99.90
5200;DHT22;2619;47.868;11.892;2023-04-24T15:41:13;13.50;99.90
5200;DHT22;2619;47.868;11.892;2023-04-24T15:43:38;13.70;99.90
5200;DHT22;2619;47.868;11.892;2023-04-24T15:46:06;14.00;99.90
5200;DHT22;2619;47.868;11.892;2023-04-24T15:48:32;14.40;99.90
5200;DHT22;2619;47.868;11.892;2023-04-24T15:50:58;14.40;99.90
5200;DHT22;2619;47.868;11.892;2023-04-24T15:53:26;14.20;99.90
5200;DHT22;2619;47.868;11.892;2023-04-24T15:55:52;13.70;99.90
5200;DHT22;2619;47.868;11.892;2023-04-24T15:58:20;13.20;99.90
5200;DHT22;2619;47.868;11.892;2023-04-24T16:00:46;12.90;99.90